Time;durP1;ratioP1;P1;durP2;ratioP2;P2;SDS_P1;SDS_P2;PMS_P1;PMS_P2;Temp;Humidity;BMP_temperature;BMP_pressure;BME280_temperature;BME280_humidity;BME280_pressure;Samples;Min_cycle;Max_cycle;Signal;HPM_P1;HPM_P2
2022/10/07 00:00:36;;;;;;;;;;;6.10;99.90;;;;;;5073816;28;19914;-67
2022/10/07 00:03:02;;;;;;;;;;;6.10;99.90;;;;;;5073500;28;19995;-67
2022/10/07 00:05:27;;;;;;;;;;;6.10;99.90;;;;;;5073256;28;20329;-67
2022/10/07 00:07:53;;;;;;;;;;;6.20;99.90;;;;;;5073489;28;19908;-67
2022/10/07 00:10:19;;;;;;;;;;;6.30;99.90;;;;;;5073501;28;19908;-67
2022/10/07 00:12:44;;;;;;;;;;;6.30;99.90;;;;;;5073729;28;20358;-67
2022/10/07 00:15:10;;;;;;;;;;;6.30;99.90;;;;;;5073666;28;20271;-67
2022/10/07 00:17:35;;;;;;;;;;;6.30;99.90;;;;;;5055529;28;20343;-67
2022/10/07 00:20:01;;;;;;;;;;;6.30;99.90;;;;;;5073649;28;19908;-67
2022/10/07 00:22:26;;;;;;;;;;;6.20;99.90;;;;;;5055423;28;19912;-67
2022/10/07 00:24:52;;;;;;;;;;;6.20;99.90;;;;;;5073368;28;19909;-67
2022/10/07 00:27:17;;;;;;;;;;;6.20;99.90;;;;;;5074180;28;19965;-67
2022/10/07 00:29:43;;;;;;;;;;;6.10;99.90;;;;;;5077606;28;19908;-67
2022/10/07 00:32:08;;;;;;;;;;;6.10;99.90;;;;;;5077526;28;19908;-67
2022/10/07 00:34:34;;;;;;;;;;;6.10;99.90;;;;;;5077259;28;19948;-67
2022/10/07 00:36:59;;;;;;;;;;;6.00;99.90;;;;;;5077201;28;19909;-67
2022/10/07 00:39:25;;;;;;;;;;;5.90;99.90;;;;;;5077413;28;19909;-67
2022/10/07 00:41:50;;;;;;;;;;;6.00;99.90;;;;;;5077130;28;19915;-67
2022/10/07 00:44:34;;;;;;;;;;;5.90;99.90;;;;;;5077316;28;20401;-67
2022/10/07 00:47:05;;;;;;;;;;;5.90;99.90;;;;;;5076820;28;19913;-67
2022/10/07 00:49:36;;;;;;;;;;;5.80;99.90;;;;;;5077188;28;20374;-67
2022/10/07 00:52:01;;;;;;;;;;;5.80;99.90;;;;;;5076981;28;19908;-67
2022/10/07 00:54:27;;;;;;;;;;;5.70;99.90;;;;;;5077078;28;20267;-67
2022/10/07 00:56:52;;;;;;;;;;;5.70;99.90;;;;;;5076782;28;19916;-67
2022/10/07 00:59:19;;;;;;;;;;;5.70;99.90;;;;;;5076965;28;19958;-67
2022/10/07 01:01:45;;;;;;;;;;;5.60;99.90;;;;;;5076707;28;19916;-67
2022/10/07 01:04:12;;;;;;;;;;;5.70;99.90;;;;;;5076916;28;20003;-67
2022/10/07 01:06:38;;;;;;;;;;;5.60;99.90;;;;;;5076444;28;19920;-67
2022/10/07 01:09:04;;;;;;;;;;;5.60;99.90;;;;;;5076578;28;20363;-67
2022/10/07 01:11:50;;;;;;;;;;;5.60;99.90;;;;;;5076792;28;20263;-68
2022/10/07 01:14:37;;;;;;;;;;;5.60;99.90;;;;;;5076354;28;20366;-67
2022/10/07 01:17:23;;;;;;;;;;;5.50;99.90;;;;;;5076406;28;19989;-67
2022/10/07 01:20:02;;;;;;;;;;;5.50;99.90;;;;;;5076239;28;19908;-67
2022/10/07 01:22:48;;;;;;;;;;;5.50;99.90;;;;;;5076614;28;20286;-67
2022/10/07 01:25:34;;;;;;;;;;;5.50;99.90;;;;;;5076274;28;19908;-67
2022/10/07 01:28:02;;;;;;;;;;;5.40;99.90;;;;;;5076178;28;19908;-67
2022/10/07 01:30:30;;;;;;;;;;;5.40;99.90;;;;;;5076474;28;20362;-67
2022/10/07 01:33:00;;;;;;;;;;;5.40;99.90;;;;;;5076433;28;19908;-67
2022/10/07 01:35:27;;;;;;;;;;;5.40;99.90;;;;;;5076372;28;20383;-67
2022/10/07 01:37:54;;;;;;;;;;;5.40;99.90;;;;;;5075610;28;19916;-67
2022/10/07 01:40:22;;;;;;;;;;;5.40;99.90;;;;;;5058166;28;19912;-67
2022/10/07 01:42:48;;;;;;;;;;;5.40;99.90;;;;;;5058186;28;20370;-67
2022/10/07 01:45:20;;;;;;;;;;;5.40;99.90;;;;;;5075888;28;19909;-67
2022/10/07 01:47:46;;;;;;;;;;;5.30;99.90;;;;;;5076131;28;20378;-67
2022/10/07 01:50:12;;;;;;;;;;;5.30;99.90;;;;;;5075829;28;19915;-67
2022/10/07 01:52:58;;;;;;;;;;;5.30;99.90;;;;;;5075903;28;20343;-67
2022/10/07 01:55:44;;;;;;;;;;;5.20;99.90;;;;;;5075677;28;19909;-67
2022/10/07 01:58:15;;;;;;;;;;;5.30;99.90;;;;;;5075582;28;19916;-67
2022/10/07 02:00:44;;;;;;;;;;;5.30;99.90;;;;;;5075925;28;20424;-67
2022/10/07 02:03:20;;;;;;;;;;;5.30;99.90;;;;;;5075853;28;19908;-67
2022/10/07 02:05:50;;;;;;;;;;;5.30;99.90;;;;;;5075363;28;20077;-67
2022/10/07 02:08:34;;;;;;;;;;;5.30;99.90;;;;;;5075452;28;19916;-67
2022/10/07 02:11:20;;;;;;;;;;;5.30;99.90;;;;;;5075691;28;20275;-67
2022/10/07 02:14:05;;;;;;;;;;;5.20;99.90;;;;;;5075254;28;20392;-67
2022/10/07 02:16:36;;;;;;;;;;;5.20;99.90;;;;;;5075139;28;20374;-67
2022/10/07 02:19:05;;;;;;;;;;;5.20;99.90;;;;;;5075284;28;19962;-67
2022/10/07 02:21:32;;;;;;;;;;;5.20;99.90;;;;;;5075215;28;19908;-67
2022/10/07 02:23:58;;;;;;;;;;;5.20;99.90;;;;;;5075151;28;19912;-67
2022/10/07 02:26:25;;;;;;;;;;;5.20;99.90;;;;;;5074988;28;19912;-67
2022/10/07 02:28:52;;;;;;;;;;;5.20;99.90;;;;;;5075344;28;20382;-67
2022/10/07 02:31:19;;;;;;;;;;;5.20;99.90;;;;;;5057046;28;19913;-67
2022/10/07 02:33:46;;;;;;;;;;;5.20;99.90;;;;;;5074866;28;20003;-67
2022/10/07 02:36:15;;;;;;;;;;;5.20;99.90;;;;;;5075167;28;19908;-67
2022/10/07 02:38:41;;;;;;;;;;;5.20;99.90;;;;;;5075139;28;20275;-67
2022/10/07 02:41:30;;;;;;;;;;;5.20;99.90;;;;;;5075112;28;19913;-67
2022/10/07 02:44:08;;;;;;;;;;;5.20;99.90;;;;;;5075058;28;20370;-67
2022/10/07 02:46:37;;;;;;;;;;;5.20;99.90;;;;;;5074634;28;19919;-67
2022/10/07 02:49:08;;;;;;;;;;;5.20;99.90;;;;;;5074869;28;19995;-67
2022/10/07 02:51:39;;;;;;;;;;;5.20;99.90;;;;;;5074266;28;19908;-67
2022/10/07 02:54:05;;;;;;;;;;;5.20;99.90;;;;;;5074605;28;19909;-67
2022/10/07 02:56:31;;;;;;;;;;;5.10;99.90;;;;;;5074779;28;19986;-67
2022/10/07 02:58:59;;;;;;;;;;;5.20;99.90;;;;;;5074483;28;19951;-67
2022/10/07 03:01:27;;;;;;;;;;;5.10;99.90;;;;;;5074713;28;20282;-67
2022/10/07 03:03:53;;;;;;;;;;;5.10;99.90;;;;;;5074370;28;19912;-68
2022/10/07 03:06:18;;;;;;;;;;;5.10;99.90;;;;;;5074153;28;19970;-67
2022/10/07 03:08:46;;;;;;;;;;;5.10;99.90;;;;;;5074292;28;20264;-67
2022/10/07 03:11:12;;;;;;;;;;;5.10;99.90;;;;;;5074264;28;20004;-67
2022/10/07 03:13:37;;;;;;;;;;;5.10;99.90;;;;;;5074236;28;19951;-67
2022/10/07 03:16:04;;;;;;;;;;;5.10;99.90;;;;;;5074466;28;19958;-67
2022/10/07 03:18:29;;;;;;;;;;;5.10;99.90;;;;;;5074418;28;19909;-67
2022/10/07 03:20:56;;;;;;;;;;;5.10;99.90;;;;;;5074394;28;19957;-67
2022/10/07 03:23:22;;;;;;;;;;;5.10;99.90;;;;;;5074354;28;20320;-67
2022/10/07 03:25:49;;;;;;;;;;;5.00;99.90;;;;;;5074186;28;19916;-67
2022/10/07 03:28:14;;;;;;;;;;;5.00;99.90;;;;;;5074217;28;20355;-67
2022/10/07 03:30:40;;;;;;;;;;;5.00;99.90;;;;;;5056365;28;19908;-67
2022/10/07 03:33:07;;;;;;;;;;;5.00;99.90;;;;;;5073903;28;20313;-67
2022/10/07 03:35:32;;;;;;;;;;;5.00;99.90;;;;;;5074148;28;19913;-67
2022/10/07 03:37:58;;;;;;;;;;;5.00;99.90;;;;;;5074109;28;19959;-67
2022/10/07 03:40:23;;;;;;;;;;;5.00;99.90;;;;;;5055978;28;19940;-67
2022/10/07 03:42:49;;;;;;;;;;;5.00;99.90;;;;;;5073761;28;19962;-67
2022/10/07 03:45:14;;;;;;;;;;;5.00;99.90;;;;;;5074036;28;19908;-67
2022/10/07 03:47:40;;;;;;;;;;;5.00;99.90;;;;;;5073814;28;20451;-67
2022/10/07 03:50:05;;;;;;;;;;;5.00;99.90;;;;;;5073998;28;19908;-67
2022/10/07 03:52:31;;;;;;;;;;;5.00;99.90;;;;;;5073939;28;19909;-67
2022/10/07 03:54:56;;;;;;;;;;;5.00;99.90;;;;;;5073886;28;20359;-67
2022/10/07 03:57:53;;;;;;;;;;;5.00;99.90;;;;;;5073886;28;20437;-67
2022/10/07 04:00:07;;;;;;;;;;;5.00;99.90;;;;;;5073470;28;19994;-68
2022/10/07 04:02:33;;;;;;;;;;;5.00;99.90;;;;;;5073410;28;19962;-68
2022/10/07 04:04:58;;;;;;;;;;;5.00;99.90;;;;;;5073512;28;19916;-68
2022/10/07 04:07:24;;;;;;;;;;;5.00;99.90;;;;;;5073287;28;20130;-67
2022/10/07 04:09:49;;;;;;;;;;;5.00;99.90;;;;;;5073739;28;19916;-67
2022/10/07 04:12:15;;;;;;;;;;;5.00;99.90;;;;;;5073473;28;19960;-67
2022/10/07 04:14:40;;;;;;;;;;;5.10;99.90;;;;;;5073726;28;19915;-67
2022/10/07 04:17:06;;;;;;;;;;;5.10;99.90;;;;;;5073676;28;19909;-67
2022/10/07 04:19:31;;;;;;;;;;;5.10;99.90;;;;;;5073373;28;20325;-67
2022/10/07 04:21:57;;;;;;;;;;;5.10;99.90;;;;;;5073319;28;19919;-67
2022/10/07 04:24:22;;;;;;;;;;;5.10;99.90;;;;;;5073615;28;19909;-67
2022/10/07 04:26:48;;;;;;;;;;;5.10;99.90;;;;;;5055295;28;20351;-67
2022/10/07 04:29:14;;;;;;;;;;;5.20;99.90;;;;;;5073352;28;20011;-67
2022/10/07 04:31:39;;;;;;;;;;;5.20;99.90;;;;;;5073210;28;20003;-67
2022/10/07 04:34:05;;;;;;;;;;;5.20;99.90;;;;;;5073482;28;19908;-68
2022/10/07 04:36:31;;;;;;;;;;;5.30;99.90;;;;;;5073490;28;19908;-67
2022/10/07 04:38:57;;;;;;;;;;;5.30;99.90;;;;;;5073456;28;19908;-67
2022/10/07 04:41:22;;;;;;;;;;;5.30;99.90;;;;;;5055621;28;20240;-67
2022/10/07 04:43:49;;;;;;;;;;;5.40;99.90;;;;;;5073428;28;19908;-67
2022/10/07 04:46:15;;;;;;;;;;;5.40;99.90;;;;;;5073349;28;20011;-67
2022/10/07 04:48:44;;;;;;;;;;;5.50;99.90;;;;;;5073091;28;19990;-68
2022/10/07 04:51:10;;;;;;;;;;;5.50;99.90;;;;;;5055574;28;19909;-68
2022/10/07 04:53:36;;;;;;;;;;;5.50;99.90;;;;;;5072959;28;19912;-68
2022/10/07 04:56:02;;;;;;;;;;;5.60;99.90;;;;;;5072951;28;19952;-68
2022/10/07 04:58:28;;;;;;;;;;;5.60;99.90;;;;;;5055205;28;19963;-69
2022/10/07 05:00:54;;;;;;;;;;;5.60;99.90;;;;;;5072956;28;19954;-67
2022/10/07 05:03:21;;;;;;;;;;;5.50;99.90;;;;;;5073271;28;19955;-67
2022/10/07 05:05:48;;;;;;;;;;;5.50;99.90;;;;;;5054817;28;20337;-67
2022/10/07 05:08:14;;;;;;;;;;;5.40;99.90;;;;;;5073223;28;20354;-66
2022/10/07 05:10:40;;;;;;;;;;;5.40;99.90;;;;;;5072997;28;19916;-67
2022/10/07 05:13:06;;;;;;;;;;;5.40;99.90;;;;;;5073457;28;19908;-67
2022/10/07 05:15:32;;;;;;;;;;;5.30;99.90;;;;;;5076762;28;19966;-67
2022/10/07 05:17:58;;;;;;;;;;;5.30;99.90;;;;;;5076402;28;19961;-67
2022/10/07 05:20:23;;;;;;;;;;;5.20;99.90;;;;;;5076448;28;19957;-67
2022/10/07 05:22:48;;;;;;;;;;;5.20;99.90;;;;;;5076358;28;19931;-67
2022/10/07 05:25:14;;;;;;;;;;;5.20;99.90;;;;;;5076289;28;19913;-67
2022/10/07 05:27:39;;;;;;;;;;;5.10;99.90;;;;;;5076497;28;19919;-67
2022/10/07 05:30:06;;;;;;;;;;;5.10;99.90;;;;;;5076264;28;19908;-67
2022/10/07 05:32:31;;;;;;;;;;;5.10;99.90;;;;;;5076438;28;19908;-67
2022/10/07 05:34:57;;;;;;;;;;;5.10;99.90;;;;;;5076425;28;20395;-67
2022/10/07 05:37:22;;;;;;;;;;;5.00;99.90;;;;;;5076114;28;20454;-67
2022/10/07 05:39:48;;;;;;;;;;;5.00;99.90;;;;;;5076300;28;19917;-67
2022/10/07 05:42:13;;;;;;;;;;;5.00;99.90;;;;;;5076059;28;19912;-67
2022/10/07 05:44:39;;;;;;;;;;;5.00;99.90;;;;;;5076058;28;19916;-68
2022/10/07 05:47:04;;;;;;;;;;;5.00;99.90;;;;;;5076125;28;19919;-68
2022/10/07 05:49:30;;;;;;;;;;;5.00;99.90;;;;;;5073374;28;20398;-69
2022/10/07 05:51:55;;;;;;;;;;;5.00;99.90;;;;;;5075325;28;19912;-67
2022/10/07 05:54:21;;;;;;;;;;;5.00;99.90;;;;;;5075708;28;19959;-67
2022/10/07 05:56:47;;;;;;;;;;;5.00;99.90;;;;;;5075845;28;19909;-67
2022/10/07 05:59:12;;;;;;;;;;;5.10;99.90;;;;;;5075577;28;19915;-67
2022/10/07 06:01:39;;;;;;;;;;;5.20;99.90;;;;;;5075459;28;19913;-67
2022/10/07 06:04:06;;;;;;;;;;;5.30;99.90;;;;;;5062762;28;20274;-70
2022/10/07 06:06:33;;;;;;;;;;;5.40;99.90;;;;;;5063860;28;20003;-67
2022/10/07 06:13:06;;;;;;;;;;;5.40;99.90;;;;;;5064218;28;19966;-67
2022/10/07 06:14:29;;;;;;;;;;;5.70;99.90;;;;;;5057157;28;20557;-68
2022/10/07 06:16:55;;;;;;;;;;;5.80;99.90;;;;;;5064532;28;19931;-67
2022/10/07 06:19:21;;;;;;;;;;;5.90;99.90;;;;;;5070841;28;19920;-65
2022/10/07 06:21:47;;;;;;;;;;;6.10;99.90;;;;;;5067500;28;19912;-67
2022/10/07 06:24:12;;;;;;;;;;;6.30;99.90;;;;;;5072440;28;19912;-67
2022/10/07 06:26:38;;;;;;;;;;;6.80;99.90;;;;;;5064105;28;20378;-67
2022/10/07 06:29:03;;;;;;;;;;;7.60;99.90;;;;;;5060927;28;19923;-67
2022/10/07 06:31:29;;;;;;;;;;;8.70;99.90;;;;;;5063590;28;19915;-67
2022/10/07 06:33:54;;;;;;;;;;;9.30;99.90;;;;;;5074370;28;19909;-67
2022/10/07 06:36:20;;;;;;;;;;;9.80;99.90;;;;;;5067331;28;19916;-67
2022/10/07 06:38:46;;;;;;;;;;;10.50;99.90;;;;;;5058267;28;19912;-67
2022/10/07 06:41:12;;;;;;;;;;;11.10;99.90;;;;;;5074029;28;20260;-67
2022/10/07 06:43:37;;;;;;;;;;;12.10;99.90;;;;;;5065835;28;19920;-68
2022/10/07 06:46:04;;;;;;;;;;;13.50;99.90;;;;;;5059469;28;20458;-67
2022/10/07 06:48:30;;;;;;;;;;;14.00;99.90;;;;;;5072372;28;19919;-68
2022/10/07 06:50:57;;;;;;;;;;;14.60;99.90;;;;;;5067955;28;19924;-69
2022/10/07 06:53:23;;;;;;;;;;;14.80;99.90;;;;;;5074169;28;19948;-69
2022/10/07 06:55:50;;;;;;;;;;;15.30;99.90;;;;;;5068880;28;19913;-68
2022/10/07 06:58:16;;;;;;;;;;;15.90;99.90;;;;;;5063470;28;19909;-68
2022/10/07 07:00:42;;;;;;;;;;;16.40;99.90;;;;;;5058181;28;19913;-68
2022/10/07 07:03:09;;;;;;;;;;;16.70;99.90;;;;;;5074548;28;20014;-68
2022/10/07 07:05:36;;;;;;;;;;;16.90;99.90;;;;;;5067903;28;19920;-68
2022/10/07 07:08:01;;;;;;;;;;;17.00;99.90;;;;;;5066988;28;19912;-68
2022/10/07 07:10:27;;;;;;;;;;;17.10;99.90;;;;;;5074159;28;19919;-68
2022/10/07 07:12:53;;;;;;;;;;;17.40;99.90;;;;;;5074047;28;20359;-68
2022/10/07 07:15:18;;;;;;;;;;;17.60;99.90;;;;;;5073749;28;20315;-68
2022/10/07 07:17:44;;;;;;;;;;;18.10;99.90;;;;;;5074324;28;19919;-67
2022/10/07 07:20:10;;;;;;;;;;;17.80;99.90;;;;;;5074197;28;19908;-68
2022/10/07 07:22:35;;;;;;;;;;;17.70;99.90;;;;;;5073761;28;19919;-68
2022/10/07 07:25:00;;;;;;;;;;;18.00;99.90;;;;;;5063932;28;20287;-68
2022/10/07 07:27:26;;;;;;;;;;;17.60;99.90;;;;;;5072951;28;19927;-68
2022/10/07 07:29:51;;;;;;;;;;;17.60;99.90;;;;;;5049310;28;19912;-68
2022/10/07 07:32:17;;;;;;;;;;;18.10;99.90;;;;;;5067553;28;20441;-67
2022/10/07 07:34:42;;;;;;;;;;;18.20;99.90;;;;;;5072603;28;19984;-68
2022/10/07 07:37:08;;;;;;;;;;;18.80;99.90;;;;;;5071317;28;20377;-68
2022/10/07 07:39:34;;;;;;;;;;;19.30;99.90;;;;;;5069170;28;19912;-68
2022/10/07 07:41:59;;;;;;;;;;;19.80;99.90;;;;;;5071777;28;19912;-67
2022/10/07 07:44:26;;;;;;;;;;;19.60;99.90;;;;;;5072163;28;20002;-68
2022/10/07 07:46:51;;;;;;;;;;;19.30;99.90;;;;;;5071870;28;19952;-68
2022/10/07 07:49:18;;;;;;;;;;;18.60;99.90;;;;;;5071378;28;19981;-68
2022/10/07 07:51:43;;;;;;;;;;;18.50;99.90;;;;;;5066980;28;19966;-68
2022/10/07 07:54:09;;;;;;;;;;;18.80;99.90;;;;;;5069504;28;20274;-68
2022/10/07 07:56:35;;;;;;;;;;;19.00;99.90;;;;;;5071504;28;19913;-68
2022/10/07 07:59:02;;;;;;;;;;;18.70;99.90;;;;;;5071614;28;20347;-68
2022/10/07 08:01:30;;;;;;;;;;;18.40;99.90;;;;;;5070785;28;19970;-69
2022/10/07 08:03:56;;;;;;;;;;;18.30;99.90;;;;;;5053903;28;19958;-68
2022/10/07 08:06:21;;;;;;;;;;;18.30;99.90;;;;;;5071635;28;19983;-69
2022/10/07 08:08:47;;;;;;;;;;;18.40;99.90;;;;;;5072044;28;20247;-67
2022/10/07 08:11:14;;;;;;;;;;;18.20;99.90;;;;;;5072382;28;19913;-68
2022/10/07 08:13:40;;;;;;;;;;;18.20;99.90;;;;;;5055259;28;20290;-68
2022/10/07 08:16:06;;;;;;;;;;;17.90;99.90;;;;;;5070119;28;19912;-68
2022/10/07 08:18:32;;;;;;;;;;;18.30;99.90;;;;;;5071073;28;20325;-68
2022/10/07 08:20:58;;;;;;;;;;;18.10;99.90;;;;;;5071534;28;19913;-68
2022/10/07 08:23:25;;;;;;;;;;;18.10;99.90;;;;;;5070051;28;19921;-68
2022/10/07 08:25:52;;;;;;;;;;;18.50;99.90;;;;;;5068612;28;19916;-67
2022/10/07 08:28:18;;;;;;;;;;;18.20;99.90;;;;;;5072032;28;20397;-68
2022/10/07 08:30:45;;;;;;;;;;;18.40;99.90;;;;;;5071043;28;20006;-68
2022/10/07 08:33:10;;;;;;;;;;;18.40;99.90;;;;;;5071246;28;19993;-67
2022/10/07 08:35:36;;;;;;;;;;;18.50;99.90;;;;;;5069934;28;19909;-68
2022/10/07 08:38:01;;;;;;;;;;;18.50;99.90;;;;;;5069325;28;19913;-68
2022/10/07 08:40:27;;;;;;;;;;;18.60;99.90;;;;;;5067461;28;19912;-67
2022/10/07 08:42:53;;;;;;;;;;;19.00;99.90;;;;;;5070859;28;20003;-67
2022/10/07 08:45:36;;;;;;;;;;;18.40;99.90;;;;;;5068333;28;19909;-67
2022/10/07 08:48:04;;;;;;;;;;;17.70;99.90;;;;;;5066048;28;20430;-68
2022/10/07 08:50:38;;;;;;;;;;;18.20;99.90;;;;;;5074124;28;19908;-68
2022/10/07 08:53:05;;;;;;;;;;;18.60;99.90;;;;;;5073529;28;19962;-68
2022/10/07 08:55:38;;;;;;;;;;;18.50;99.90;;;;;;5075623;28;20381;-68
2022/10/07 08:58:23;;;;;;;;;;;18.70;99.90;;;;;;5063485;28;19946;-68
2022/10/07 09:00:55;;;;;;;;;;;18.80;99.90;;;;;;5076018;28;19909;-67
2022/10/07 09:03:40;;;;;;;;;;;18.50;99.90;;;;;;5073787;28;20010;-68
2022/10/07 09:06:10;;;;;;;;;;;18.30;99.90;;;;;;5073490;28;19973;-67
2022/10/07 09:08:39;;;;;;;;;;;18.10;99.90;;;;;;5069392;28;19952;-68
2022/10/07 09:11:14;;;;;;;;;;;18.40;99.90;;;;;;5038022;28;19962;-68
2022/10/07 09:13:42;;;;;;;;;;;18.10;99.90;;;;;;5069927;28;19912;-68
2022/10/07 09:16:12;;;;;;;;;;;18.30;99.90;;;;;;5076318;28;19981;-68
2022/10/07 09:18:39;;;;;;;;;;;18.50;99.90;;;;;;5069529;28;20423;-68
2022/10/07 09:21:11;;;;;;;;;;;18.30;99.90;;;;;;5069469;28;20346;-67
2022/10/07 09:23:37;;;;;;;;;;;18.60;99.90;;;;;;5073935;28;19912;-68
2022/10/07 09:26:10;;;;;;;;;;;18.80;99.90;;;;;;5067974;28;19916;-68
2022/10/07 09:28:36;;;;;;;;;;;18.60;99.90;;;;;;5072246;28;20469;-67
2022/10/07 09:31:02;;;;;;;;;;;18.70;99.90;;;;;;5069476;28;20069;-67
2022/10/07 09:33:28;;;;;;;;;;;18.40;99.90;;;;;;5056745;28;20127;-67
2022/10/07 09:35:55;;;;;;;;;;;18.80;99.90;;;;;;5069614;28;20064;-67
2022/10/07 09:38:29;;;;;;;;;;;19.20;99.90;;;;;;5060407;28;19912;-68
2022/10/07 09:41:18;;;;;;;;;;;20.30;99.90;;;;;;5058939;28;20271;-69
2022/10/07 09:44:04;;;;;;;;;;;19.90;99.90;;;;;;5060834;28;19919;-68
2022/10/07 09:46:40;;;;;;;;;;;19.90;99.90;;;;;;5064715;28;20282;-68
2022/10/07 09:49:06;;;;;;;;;;;19.90;99.90;;;;;;5068561;28;20271;-69
2022/10/07 09:51:34;;;;;;;;;;;19.70;99.90;;;;;;5073584;28;19916;-68
2022/10/07 09:54:04;;;;;;;;;;;19.60;99.90;;;;;;5074443;28;19916;-68
2022/10/07 09:56:33;;;;;;;;;;;19.20;99.90;;;;;;5074414;28;19914;-68
2022/10/07 09:59:19;;;;;;;;;;;19.10;99.90;;;;;;5070322;28;19916;-68
2022/10/07 10:01:47;;;;;;;;;;;19.20;99.90;;;;;;5068158;28;19916;-68
2022/10/07 10:04:17;;;;;;;;;;;19.00;99.90;;;;;;5066540;28;19908;-69
2022/10/07 10:06:47;;;;;;;;;;;18.90;99.90;;;;;;5062325;28;20403;-69
2022/10/07 10:09:14;;;;;;;;;;;18.90;99.90;;;;;;5072429;28;20277;-67
2022/10/07 10:11:40;;;;;;;;;;;18.80;99.90;;;;;;5074204;28;20361;-66
2022/10/07 10:14:25;;;;;;;;;;;19.10;99.90;;;;;;5053693;28;19912;-68
2022/10/07 10:16:50;;;;;;;;;;;19.80;99.90;;;;;;5052436;28;19971;-66
2022/10/07 10:19:21;;;;;;;;;;;19.70;99.90;;;;;;5066085;28;20359;-68
2022/10/07 10:21:55;;;;;;;;;;;19.30;99.90;;;;;;5072078;28;20000;-66
2022/10/07 10:26:24;;;;;;;;;;;19.30;99.90;;;;;;5067394;28;19974;-67
2022/10/07 10:27:11;;;;;;;;;;;19.20;99.90;;;;;;5067252;28;19974;-67
2022/10/07 10:29:43;;;;;;;;;;;19.60;99.90;;;;;;5044334;28;19916;-67
2022/10/07 10:32:20;;;;;;;;;;;19.20;99.90;;;;;;5073265;28;19960;-66
2022/10/07 10:34:51;;;;;;;;;;;19.30;99.90;;;;;;5060043;28;20264;-67
2022/10/07 10:37:19;;;;;;;;;;;19.40;99.90;;;;;;5074578;28;19912;-67
2022/10/07 10:40:06;;;;;;;;;;;19.20;99.90;;;;;;5073179;28;19917;-67
2022/10/07 10:42:51;;;;;;;;;;;19.40;99.90;;;;;;5066451;28;19912;-68
2022/10/07 10:45:36;;;;;;;;;;;19.50;99.90;;;;;;5084008;28;20301;-67
2022/10/07 10:48:10;;;;;;;;;;;19.60;99.90;;;;;;5070713;28;19939;-62
2022/10/07 10:50:41;;;;;;;;;;;19.30;99.90;;;;;;5071608;28;20285;-63
2022/10/07 10:53:30;;;;;;;;;;;19.10;99.90;;;;;;5070429;28;20294;-63
2022/10/07 10:56:07;;;;;;;;;;;19.10;99.90;;;;;;5070410;28;19908;-61
2022/10/07 10:58:43;;;;;;;;;;;19.40;99.90;;;;;;5068345;28;19919;-64
2022/10/07 11:01:29;;;;;;;;;;;19.30;99.90;;;;;;5070925;28;19921;-62
2022/10/07 11:04:08;;;;;;;;;;;19.30;99.90;;;;;;5056116;28;19913;-62
2022/10/07 11:06:34;;;;;;;;;;;19.20;99.90;;;;;;5071729;28;19966;-63
2022/10/07 11:09:01;;;;;;;;;;;19.40;99.90;;;;;;5073732;28;20412;-62
2022/10/07 11:11:27;;;;;;;;;;;19.10;99.90;;;;;;5073372;28;19966;-61
2022/10/07 11:13:57;;;;;;;;;;;18.80;99.90;;;;;;5055709;28;19908;-64
2022/10/07 11:16:26;;;;;;;;;;;19.10;99.90;;;;;;5072293;28;19916;-62
2022/10/07 11:19:03;;;;;;;;;;;19.20;99.90;;;;;;5071115;28;19909;-61
2022/10/07 11:21:31;;;;;;;;;;;19.40;99.90;;;;;;5073336;28;19961;-61
2022/10/07 11:24:00;;;;;;;;;;;19.00;99.90;;;;;;5072366;28;19954;-62
2022/10/07 11:29:25;;;;;;;;;;;19.30;99.90;;;;;;5070006;28;19923;-61
2022/10/07 11:31:57;;;;;;;;;;;19.10;99.90;;;;;;5068014;28;19919;-62
2022/10/07 11:34:27;;;;;;;;;;;19.20;99.90;;;;;;5050658;28;19913;-61
2022/10/07 11:36:55;;;;;;;;;;;19.60;99.90;;;;;;5069909;28;19954;-60
2022/10/07 11:39:22;;;;;;;;;;;19.30;99.90;;;;;;5064289;28;19959;-64
2022/10/07 11:41:51;;;;;;;;;;;19.20;99.90;;;;;;5051760;28;20355;-63
2022/10/07 11:44:18;;;;;;;;;;;19.00;99.90;;;;;;5047846;28;19918;-61
2022/10/07 11:46:45;;;;;;;;;;;18.80;99.90;;;;;;5056832;28;19912;-61
2022/10/07 11:49:14;;;;;;;;;;;18.60;99.90;;;;;;5044738;28;19942;-61
2022/10/07 11:51:52;;;;;;;;;;;18.40;99.90;;;;;;5054937;28;19980;-62
2022/10/07 11:54:20;;;;;;;;;;;18.60;99.90;;;;;;5035094;28;20421;-62
2022/10/07 11:56:48;;;;;;;;;;;18.60;99.90;;;;;;5049910;28;19909;-62
2022/10/07 11:59:32;;;;;;;;;;;18.80;99.90;;;;;;5050154;28;19932;-62
2022/10/07 12:01:58;;;;;;;;;;;18.90;99.90;;;;;;5053811;28;19978;-61
2022/10/07 12:07:28;;;;;;;;;;;19.00;99.90;;;;;;5078208;27;19923;-62
2022/10/07 12:10:06;;;;;;;;;;;18.70;99.90;;;;;;5050442;28;19913;-62
2022/10/07 12:12:47;;;;;;;;;;;18.80;99.90;;;;;;5068354;28;19940;-62
2022/10/07 12:15:30;;;;;;;;;;;19.10;99.90;;;;;;5069406;28;20338;-63
2022/10/07 12:18:05;;;;;;;;;;;19.00;99.90;;;;;;5070445;28;19915;-60
2022/10/07 12:20:36;;;;;;;;;;;18.90;99.90;;;;;;5070043;28;19913;-61
2022/10/07 12:23:19;;;;;;;;;;;18.80;99.90;;;;;;5070071;28;19913;-62
2022/10/07 12:25:46;;;;;;;;;;;18.80;99.90;;;;;;5067741;28;19913;-62
2022/10/07 12:28:22;;;;;;;;;;;18.80;99.90;;;;;;5070530;28;19913;-63
2022/10/07 12:30:50;;;;;;;;;;;18.60;99.90;;;;;;5069631;28;19908;-63
2022/10/07 12:33:35;;;;;;;;;;;18.70;99.90;;;;;;5070362;28;19915;-62
2022/10/07 12:36:20;;;;;;;;;;;18.70;99.90;;;;;;5070453;28;19958;-62
2022/10/07 12:41:44;;;;;;;;;;;19.00;99.90;;;;;;5091314;27;19912;-62
2022/10/07 12:44:15;;;;;;;;;;;19.40;99.90;;;;;;5091446;28;19938;-62
2022/10/07 12:46:47;;;;;;;;;;;19.40;99.90;;;;;;5091010;28;19912;-61
2022/10/07 12:49:24;;;;;;;;;;;18.90;99.90;;;;;;5089401;28;19908;-61
2022/10/07 12:51:52;;;;;;;;;;;18.90;99.90;;;;;;5091086;28;20062;-63
2022/10/07 12:54:19;;;;;;;;;;;18.70;99.90;;;;;;5091194;28;20267;-63
2022/10/07 12:56:45;;;;;;;;;;;18.60;99.90;;;;;;5090899;28;19971;-61
2022/10/07 12:59:53;;;;;;;;;;;18.80;99.90;;;;;;5090970;28;19977;-61
2022/10/07 13:02:27;;;;;;;;;;;19.00;99.90;;;;;;5090627;28;19908;-61
2022/10/07 13:05:13;;;;;;;;;;;18.80;99.90;;;;;;5090837;28;19991;-61
2022/10/07 13:07:58;;;;;;;;;;;18.80;99.90;;;;;;5090702;28;19931;-62
2022/10/07 13:10:44;;;;;;;;;;;18.80;99.90;;;;;;5090586;28;19909;-62
2022/10/07 13:13:13;;;;;;;;;;;18.70;99.90;;;;;;5089298;28;19909;-61
2022/10/07 13:15:50;;;;;;;;;;;18.80;99.90;;;;;;5090545;28;19915;-61
2022/10/07 13:18:36;;;;;;;;;;;18.80;99.90;;;;;;5090607;28;19915;-61
2022/10/07 13:21:06;;;;;;;;;;;18.80;99.90;;;;;;5088931;28;19912;-61
2022/10/07 13:23:33;;;;;;;;;;;18.90;99.90;;;;;;5090604;28;19908;-62
2022/10/07 13:26:00;;;;;;;;;;;19.00;99.90;;;;;;5123091;28;20378;-63
2022/10/07 13:28:28;;;;;;;;;;;19.00;99.90;;;;;;5090328;28;20366;-62
2022/10/07 13:30:53;;;;;;;;;;;18.70;99.90;;;;;;5088989;28;19909;-62
2022/10/07 13:33:21;;;;;;;;;;;19.00;99.90;;;;;;5090150;28;19915;-63
2022/10/07 13:35:47;;;;;;;;;;;19.00;99.90;;;;;;5089049;28;19954;-61
2022/10/07 13:38:20;;;;;;;;;;;19.20;99.90;;;;;;5090389;28;19909;-62
2022/10/07 13:40:52;;;;;;;;;;;19.20;99.90;;;;;;5103188;28;19920;-68
2022/10/07 13:43:25;;;;;;;;;;;19.00;99.90;;;;;;5110691;28;19908;-67
2022/10/07 13:45:50;;;;;;;;;;;18.60;99.90;;;;;;5110577;28;19972;-67
2022/10/07 13:48:18;;;;;;;;;;;18.70;99.90;;;;;;5092131;28;19908;-70
2022/10/07 13:50:43;;;;;;;;;;;18.70;99.90;;;;;;5091894;28;19908;-61
2022/10/07 13:53:18;;;;;;;;;;;18.70;99.90;;;;;;5096337;28;19908;-61
2022/10/07 13:55:45;;;;;;;;;;;18.60;99.90;;;;;;5096510;28;19998;-61
2022/10/07 13:58:11;;;;;;;;;;;18.60;99.90;;;;;;5061915;28;19915;-63
2022/10/07 14:00:41;;;;;;;;;;;18.70;99.90;;;;;;5096433;28;19937;-62
2022/10/07 14:03:14;;;;;;;;;;;18.70;99.90;;;;;;5096651;28;19908;-62
2022/10/07 14:05:47;;;;;;;;;;;18.60;99.90;;;;;;5096561;28;20393;-61
2022/10/07 14:08:17;;;;;;;;;;;18.60;99.90;;;;;;5096590;28;20370;-60
2022/10/07 14:10:52;;;;;;;;;;;18.70;99.90;;;;;;5096190;28;19951;-61
2022/10/07 14:13:17;;;;;;;;;;;18.70;99.90;;;;;;5096507;28;19915;-60
2022/10/07 14:15:46;;;;;;;;;;;18.70;99.90;;;;;;5096123;28;19908;-61
2022/10/07 14:18:13;;;;;;;;;;;18.60;99.90;;;;;;5096325;28;19961;-62
2022/10/07 14:20:40;;;;;;;;;;;18.60;99.90;;;;;;5096277;28;19919;-62
2022/10/07 14:23:06;;;;;;;;;;;18.60;99.90;;;;;;5096397;28;20356;-62
2022/10/07 14:25:47;;;;;;;;;;;18.70;99.90;;;;;;5096278;28;20369;-62
2022/10/07 14:28:29;;;;;;;;;;;18.70;99.90;;;;;;5096212;28;19957;-61
2022/10/07 14:37:10;;;;;;;;;;;18.70;99.90;;;;;;5095553;28;19908;-61
2022/10/07 14:39:41;;;;;;;;;;;18.70;99.90;;;;;;5095881;28;19920;-61
2022/10/07 14:42:23;;;;;;;;;;;18.80;99.90;;;;;;5096028;28;19908;-61
2022/10/07 14:44:48;;;;;;;;;;;18.70;99.90;;;;;;5095993;28;19909;-62
2022/10/07 14:47:16;;;;;;;;;;;18.60;99.90;;;;;;5095828;28;20005;-62
2022/10/07 14:49:42;;;;;;;;;;;18.60;99.90;;;;;;5095815;28;20384;-60
2022/10/07 14:52:09;;;;;;;;;;;18.60;99.90;;;;;;5095701;28;19912;-61
2022/10/07 14:54:35;;;;;;;;;;;18.40;99.90;;;;;;5060599;28;20374;-62